Time;durP1;ratioP1;P1;durP2;ratioP2;P2;SDS_P1;SDS_P2;PMS_P1;PMS_P2;Temp;Humidity;BMP_temperature;BMP_pressure;BME280_temperature;BME280_humidity;BME280_pressure;Samples;Min_cycle;Max_cycle;Signal;HPM_P1;HPM_P2
2021/08/18 00:01:50;;;;;;;10.20;5.63;;;26.60;49.00;;;;;;4164971;28;20487;-70
2021/08/18 00:03:52;;;;;;;11.95;6.18;;;26.70;49.00;;;;;;4165008;28;20358;-70
2021/08/18 00:05:54;;;;;;;13.90;6.65;;;26.70;49.00;;;;;;4165423;28;20049;-69
2021/08/18 00:07:57;;;;;;;10.52;5.20;;;26.70;49.20;;;;;;4165910;28;20042;-68
2021/08/18 00:09:59;;;;;;;9.32;5.20;;;26.60;49.30;;;;;;4165904;28;20057;-68
2021/08/18 00:12:01;;;;;;;10.82;6.00;;;26.60;49.40;;;;;;4165916;28;20073;-68
2021/08/18 00:14:03;;;;;;;14.07;6.93;;;26.50;49.60;;;;;;4165632;28;20060;-68
2021/08/18 00:16:05;;;;;;;13.00;6.00;;;26.50;49.90;;;;;;4165374;28;20056;-68
2021/08/18 00:18:08;;;;;;;10.25;6.30;;;26.50;50.10;;;;;;4165960;28;20037;-67
2021/08/18 00:20:11;;;;;;;16.40;6.40;;;26.40;50.20;;;;;;4165593;28;20454;-69
2021/08/18 00:22:13;;;;;;;10.38;6.13;;;26.40;50.20;;;;;;4165654;28;20045;-69
2021/08/18 00:24:15;;;;;;;10.82;5.60;;;26.40;50.20;;;;;;4165820;28;20100;-70
2021/08/18 00:26:18;;;;;;;8.18;5.88;;;26.40;50.40;;;;;;4148298;28;20042;-70
2021/08/18 00:28:20;;;;;;;10.57;5.68;;;26.30;50.40;;;;;;4165501;28;20107;-70
2021/08/18 00:30:23;;;;;;;9.88;5.72;;;26.30;50.60;;;;;;4165754;28;20049;-70
2021/08/18 00:32:25;;;;;;;14.45;5.65;;;26.30;50.70;;;;;;4165866;28;20459;-70
2021/08/18 00:34:27;;;;;;;9.88;5.97;;;26.30;50.80;;;;;;4165026;28;20076;-70
2021/08/18 00:36:30;;;;;;;13.15;6.20;;;26.30;50.90;;;;;;4165739;28;20053;-70
2021/08/18 00:38:32;;;;;;;10.77;5.43;;;26.30;50.90;;;;;;4165439;28;20057;-70
2021/08/18 00:40:35;;;;;;;13.77;5.53;;;26.30;50.80;;;;;;4165604;28;20042;-70
2021/08/18 00:42:38;;;;;;;7.90;5.53;;;26.20;50.50;;;;;;4165681;28;20061;-70
2021/08/18 00:44:40;;;;;;;9.02;5.55;;;26.20;50.20;;;;;;4165713;28;20056;-70
2021/08/18 00:46:54;;;;;;;12.13;5.75;;;26.20;50.20;;;;;;4165738;28;20080;-70
2021/08/18 00:48:56;;;;;;;11.15;5.80;;;26.20;50.30;;;;;;4165301;28;20072;-70
2021/08/18 00:50:59;;;;;;;6.45;5.28;;;26.20;50.40;;;;;;4165519;28;20484;-70
2021/08/18 00:53:01;;;;;;;8.35;5.57;;;26.20;50.60;;;;;;4165244;28;20056;-70
2021/08/18 00:55:04;;;;;;;6.72;5.43;;;26.20;50.90;;;;;;4165454;28;20052;-69
2021/08/18 00:57:07;;;;;;;9.50;5.63;;;26.20;51.10;;;;;;4166255;28;20501;-69
2021/08/18 00:59:10;;;;;;;9.82;5.25;;;26.20;51.30;;;;;;4165299;28;20049;-69
2021/08/18 01:01:12;;;;;;;8.05;5.88;;;26.20;51.40;;;;;;4165492;28;20049;-69
2021/08/18 01:03:14;;;;;;;9.82;6.22;;;26.20;51.70;;;;;;4165263;28;20061;-69
2021/08/18 01:05:18;;;;;;;8.43;5.70;;;26.20;51.70;;;;;;4165217;28;20081;-69
2021/08/18 01:07:20;;;;;;;9.32;6.22;;;26.10;51.90;;;;;;4165394;28;20053;-69
2021/08/18 01:09:22;;;;;;;10.50;5.72;;;26.10;52.20;;;;;;4165206;28;20049;-69
2021/08/18 01:11:24;;;;;;;8.68;5.53;;;26.20;52.20;;;;;;4165307;28;20484;-70
2021/08/18 01:13:28;;;;;;;9.38;5.13;;;26.10;52.20;;;;;;4165541;28;20472;-70
2021/08/18 01:15:31;;;;;;;8.65;5.28;;;26.10;52.40;;;;;;4165260;28;20050;-70
2021/08/18 01:17:34;;;;;;;6.38;5.38;;;26.20;52.40;;;;;;4165449;28;20053;-71
2021/08/18 01:19:36;;;;;;;9.38;5.25;;;26.20;52.50;;;;;;4165391;28;20377;-69
2021/08/18 01:21:41;;;;;;;10.27;5.43;;;26.20;52.40;;;;;;4164820;28;20041;-70
2021/08/18 01:23:44;;;;;;;7.32;5.32;;;26.20;52.60;;;;;;4165102;28;20053;-72
2021/08/18 01:25:46;;;;;;;10.30;5.30;;;26.20;52.70;;;;;;4165012;28;20046;-71
2021/08/18 01:27:59;;;;;;;8.15;4.85;;;26.20;52.90;;;;;;4165021;28;20050;-71
2021/08/18 01:30:03;;;;;;;7.57;4.63;;;26.20;52.90;;;;;;4165194;28;20091;-71
2021/08/18 01:32:05;;;;;;;8.63;5.43;;;26.20;53.00;;;;;;4165443;28;20496;-71
2021/08/18 01:34:07;;;;;;;8.82;5.43;;;26.20;53.10;;;;;;4164994;28;20045;-72
2021/08/18 01:36:09;;;;;;;10.88;6.07;;;26.20;53.10;;;;;;4164999;28;20053;-71
2021/08/18 01:38:14;;;;;;;6.97;5.72;;;26.20;53.20;;;;;;4164912;28;20053;-70
2021/08/18 01:40:16;;;;;;;6.38;4.55;;;26.20;53.20;;;;;;4164972;28;20056;-70
2021/08/18 01:42:18;;;;;;;6.70;5.03;;;26.20;53.30;;;;;;4165236;28;20495;-69
2021/08/18 01:44:20;;;;;;;6.03;4.72;;;26.20;53.20;;;;;;4164753;28;20057;-69
2021/08/18 01:46:22;;;;;;;8.30;5.47;;;26.20;53.40;;;;;;4167005;28;20051;-69
2021/08/18 01:48:29;;;;;;;9.75;6.10;;;26.20;53.30;;;;;;4168303;28;20434;-69
2021/08/18 01:50:31;;;;;;;6.97;5.15;;;26.20;53.20;;;;;;4168416;28;20384;-69
2021/08/18 01:52:35;;;;;;;7.63;5.88;;;26.20;53.20;;;;;;4168096;28;20057;-69
2021/08/18 01:54:37;;;;;;;9.60;5.50;;;26.20;53.20;;;;;;4168086;28;20053;-69
2021/08/18 01:56:39;;;;;;;7.13;5.28;;;26.20;53.20;;;;;;4168662;28;20103;-69
2021/08/18 01:58:44;;;;;;;7.32;4.93;;;26.20;53.20;;;;;;4168146;28;20049;-68
2021/08/18 02:00:46;;;;;;;8.15;5.40;;;26.10;53.10;;;;;;4168238;28;20400;-69
2021/08/18 02:02:49;;;;;;;6.32;4.95;;;26.20;53.10;;;;;;4168188;28;20053;-69
2021/08/18 02:04:51;;;;;;;7.88;5.40;;;26.20;53.00;;;;;;4167567;28;20049;-69
2021/08/18 02:06:53;;;;;;;7.53;4.95;;;26.20;53.00;;;;;;4166631;28;20049;-68
2021/08/18 02:08:55;;;;;;;7.07;5.20;;;26.20;53.00;;;;;;4168016;28;20060;-68
2021/08/18 02:10:58;;;;;;;7.32;5.32;;;26.20;52.90;;;;;;4168019;28;20073;-68
2021/08/18 02:13:00;;;;;;;10.45;5.60;;;26.10;52.90;;;;;;4167963;28;20446;-68
2021/08/18 02:15:17;;;;;;;7.50;5.32;;;26.20;53.00;;;;;;4167426;28;20049;-68
2021/08/18 02:17:19;;;;;;;9.55;5.38;;;26.10;53.00;;;;;;4167939;28;20521;-68
2021/08/18 02:19:21;;;;;;;8.45;5.50;;;26.10;53.10;;;;;;4167351;28;20046;-68
2021/08/18 02:21:23;;;;;;;7.93;4.97;;;26.20;53.10;;;;;;4167663;28;20048;-68
2021/08/18 02:23:25;;;;;;;8.75;4.88;;;26.20;53.00;;;;;;4167204;28;20045;-68
2021/08/18 02:25:28;;;;;;;8.35;5.30;;;26.10;53.10;;;;;;4167579;28;20053;-70
2021/08/18 02:27:30;;;;;;;7.53;6.05;;;26.10;53.10;;;;;;4167126;28;20057;-70
2021/08/18 02:29:32;;;;;;;8.70;5.55;;;26.10;53.10;;;;;;4167529;28;20048;-69
2021/08/18 02:31:34;;;;;;;8.20;4.93;;;26.10;53.10;;;;;;4167336;28;20060;-70
2021/08/18 02:33:36;;;;;;;15.32;5.88;;;26.20;53.30;;;;;;4167655;28;20403;-70
2021/08/18 02:35:39;;;;;;;9.45;5.63;;;26.10;53.30;;;;;;4167482;28;20068;-70
2021/08/18 02:37:41;;;;;;;7.47;5.32;;;26.10;53.30;;;;;;4168127;28;20042;-70
2021/08/18 02:39:43;;;;;;;7.95;5.25;;;26.10;53.30;;;;;;4150055;28;20520;-70
2021/08/18 02:41:45;;;;;;;7.75;5.68;;;26.10;53.40;;;;;;4167329;28;20049;-70
2021/08/18 02:43:47;;;;;;;12.15;5.88;;;26.10;53.40;;;;;;4167302;28;20045;-70
2021/08/18 02:45:49;;;;;;;9.35;5.28;;;26.10;53.50;;;;;;4167307;28;20041;-70
2021/08/18 02:47:51;;;;;;;9.82;5.60;;;26.10;53.40;;;;;;4150025;28;20460;-70
2021/08/18 02:49:53;;;;;;;8.48;5.32;;;26.10;53.50;;;;;;4167441;28;20100;-70
2021/08/18 02:51:55;;;;;;;8.40;5.82;;;26.10;53.50;;;;;;4167122;28;20041;-70
2021/08/18 02:53:57;;;;;;;8.35;6.00;;;26.10;53.50;;;;;;4167380;28;20053;-70
2021/08/18 02:55:59;;;;;;;10.18;6.20;;;26.10;53.50;;;;;;4166984;28;20060;-70
2021/08/18 02:58:02;;;;;;;10.73;6.65;;;26.10;53.50;;;;;;4167040;28;20476;-70
2021/08/18 03:00:06;;;;;;;10.55;6.75;;;26.10;53.50;;;;;;4166809;28;20053;-70
2021/08/18 03:02:08;;;;;;;9.95;6.10;;;26.10;53.50;;;;;;4167330;28;20041;-70
2021/08/18 03:04:11;;;;;;;9.73;6.38;;;26.10;53.50;;;;;;4167150;28;20056;-70
2021/08/18 03:06:13;;;;;;;9.55;5.82;;;26.10;53.50;;;;;;4166827;28;20042;-70
2021/08/18 03:08:15;;;;;;;13.50;6.68;;;26.00;53.40;;;;;;4167172;28;20471;-69
2021/08/18 03:10:17;;;;;;;7.22;5.65;;;26.10;53.40;;;;;;4148912;28;20042;-70
2021/08/18 03:12:20;;;;;;;8.15;5.43;;;26.10;53.30;;;;;;4166657;28;20049;-69
2021/08/18 03:14:22;;;;;;;13.73;5.90;;;26.10;53.30;;;;;;4166713;28;20052;-69
2021/08/18 03:16:25;;;;;;;11.98;6.00;;;26.10;53.30;;;;;;4166636;28;20049;-69
2021/08/18 03:18:29;;;;;;;6.88;5.28;;;26.10;53.20;;;;;;4166428;28;20049;-69
2021/08/18 03:20:31;;;;;;;10.38;6.95;;;26.10;53.20;;;;;;4167174;28;20046;-69
2021/08/18 03:22:33;;;;;;;11.80;7.20;;;26.10;53.20;;;;;;4166791;28;20049;-70
2021/08/18 03:24:35;;;;;;;9.88;6.20;;;26.10;53.20;;;;;;4166619;28;20053;-69
2021/08/18 03:26:37;;;;;;;7.03;5.55;;;26.10;53.10;;;;;;4166384;28;20104;-69
2021/08/18 03:28:39;;;;;;;8.13;5.55;;;26.00;53.00;;;;;;4149123;28;20042;-69
2021/08/18 03:30:42;;;;;;;11.05;6.18;;;26.10;53.00;;;;;;4166494;28;20045;-69
2021/08/18 03:32:44;;;;;;;8.45;6.30;;;26.00;53.00;;;;;;4166550;28;20053;-69
2021/08/18 03:34:46;;;;;;;8.13;6.07;;;26.00;53.00;;;;;;4166430;28;20053;-68
2021/08/18 03:36:48;;;;;;;10.05;6.30;;;26.10;53.00;;;;;;4166696;28;20059;-68
2021/08/18 03:38:50;;;;;;;11.57;6.35;;;26.00;52.90;;;;;;4166688;28;20435;-68
2021/08/18 03:40:54;;;;;;;11.35;7.05;;;26.00;53.00;;;;;;4166569;28;20053;-68
2021/08/18 03:42:56;;;;;;;12.10;6.72;;;26.00;53.00;;;;;;4166257;28;20054;-68
2021/08/18 03:44:58;;;;;;;7.15;5.90;;;26.00;53.10;;;;;;4166298;28;20048;-70
2021/08/18 03:47:00;;;;;;;14.02;6.18;;;26.00;53.20;;;;;;4166277;28;20047;-70
2021/08/18 03:49:02;;;;;;;10.57;7.18;;;26.00;53.20;;;;;;4165720;28;20049;-70
2021/08/18 03:51:05;;;;;;;9.00;6.85;;;26.00;53.20;;;;;;4166418;28;20064;-70
2021/08/18 03:53:07;;;;;;;14.45;7.18;;;26.00;53.30;;;;;;4166214;28;20487;-70
2021/08/18 03:55:11;;;;;;;10.45;6.90;;;26.00;53.30;;;;;;4166393;28;20404;-70
2021/08/18 03:57:13;;;;;;;13.13;7.78;;;26.00;53.50;;;;;;4150057;28;20046;-69
2021/08/18 03:59:15;;;;;;;14.38;7.38;;;26.00;53.40;;;;;;4149684;28;20054;-70
2021/08/18 04:01:17;;;;;;;10.70;7.60;;;26.00;53.60;;;;;;4149621;28;20050;-69
2021/08/18 04:03:20;;;;;;;9.90;7.00;;;26.00;53.50;;;;;;4149953;28;20189;-69
2021/08/18 04:05:22;;;;;;;10.65;6.82;;;26.00;53.40;;;;;;4149604;28;20042;-69
2021/08/18 04:07:25;;;;;;;9.55;6.25;;;26.00;53.50;;;;;;4149406;28;20058;-69
2021/08/18 04:09:27;;;;;;;13.35;8.55;;;26.00;53.50;;;;;;4149163;28;20445;-70
2021/08/18 04:11:29;;;;;;;11.48;7.88;;;26.00;53.60;;;;;;4149592;28;20053;-69
2021/08/18 04:13:32;;;;;;;13.07;7.63;;;26.00;53.60;;;;;;4149568;28;20053;-67
2021/08/18 04:15:39;;;;;;;12.80;8.40;;;26.00;53.60;;;;;;4148609;28;20046;-67
2021/08/18 04:17:41;;;;;;;13.52;7.15;;;26.00;53.90;;;;;;4148154;28;20046;-67
2021/08/18 04:19:44;;;;;;;12.82;7.85;;;26.00;53.80;;;;;;4148680;28;20050;-67
2021/08/18 04:21:46;;;;;;;9.00;7.53;;;26.00;53.70;;;;;;4149893;28;20050;-67
2021/08/18 04:23:48;;;;;;;12.48;7.68;;;26.00;53.70;;;;;;4149645;28;20477;-67
2021/08/18 04:25:50;;;;;;;13.30;7.57;;;26.00;53.70;;;;;;4149395;28;20131;-68
2021/08/18 04:27:52;;;;;;;11.63;7.10;;;26.00;53.70;;;;;;4149628;28;20125;-69
2021/08/18 04:29:54;;;;;;;11.32;7.15;;;26.00;53.70;;;;;;4149175;28;20054;-69
2021/08/18 04:31:57;;;;;;;10.60;7.63;;;26.00;53.70;;;;;;4149140;28;20472;-67
2021/08/18 04:33:59;;;;;;;11.93;7.65;;;26.00;53.80;;;;;;4149267;28;20064;-67
2021/08/18 04:36:01;;;;;;;16.63;7.72;;;26.00;53.80;;;;;;4149162;28;20084;-66
2021/08/18 04:38:03;;;;;;;13.05;7.90;;;26.00;53.70;;;;;;4149475;28;20100;-66
2021/08/18 04:40:08;;;;;;;20.55;8.57;;;26.00;53.90;;;;;;4149596;28;20050;-65
2021/08/18 04:42:10;;;;;;;;;;;26.00;54.30;;;;;;4149330;28;20064;-68
2021/08/18 04:44:12;;;;;;;18.63;8.43;;;26.00;54.20;;;;;;4149170;28;20353;-69
2021/08/18 04:46:14;;;;;;;12.68;7.97;;;26.00;54.00;;;;;;4149353;28;20050;-68
2021/08/18 04:48:16;;;;;;;12.93;7.72;;;26.00;53.90;;;;;;4148920;28;20045;-69
2021/08/18 04:50:19;;;;;;;19.70;7.25;;;26.00;53.80;;;;;;4149111;28;20052;-68
2021/08/18 04:52:21;;;;;;;13.35;7.53;;;26.00;53.90;;;;;;4149327;28;20045;-68
2021/08/18 04:54:23;;;;;;;13.95;7.25;;;26.00;53.90;;;;;;4149235;28;20397;-69
2021/08/18 04:56:25;;;;;;;20.30;9.18;;;26.00;53.90;;;;;;4149760;28;20062;-67
2021/08/18 04:58:27;;;;;;;13.43;7.90;;;26.00;53.90;;;;;;4149238;28;20500;-68
2021/08/18 05:00:29;;;;;;;12.05;8.32;;;26.00;54.00;;;;;;4148852;28;20046;-68
2021/08/18 05:02:35;;;;;;;11.27;7.45;;;26.00;53.90;;;;;;4149021;28;20073;-68
2021/08/18 05:04:38;;;;;;;15.30;8.45;;;25.90;53.90;;;;;;4148960;28;20049;-68
2021/08/18 05:06:40;;;;;;;14.48;7.43;;;25.90;53.90;;;;;;4148592;28;20045;-68
2021/08/18 05:08:42;;;;;;;15.90;7.78;;;26.00;53.90;;;;;;4148846;28;20057;-65
2021/08/18 05:10:44;;;;;;;12.55;6.88;;;26.00;53.90;;;;;;4148281;28;20065;-69
2021/08/18 05:12:46;;;;;;;14.05;8.05;;;26.00;53.90;;;;;;4148518;28;20072;-69
2021/08/18 05:14:49;;;;;;;12.38;8.00;;;26.00;53.90;;;;;;4131690;28;20046;-68
2021/08/18 05:16:52;;;;;;;12.75;7.72;;;26.00;53.90;;;;;;4148989;28;20108;-68
2021/08/18 05:18:54;;;;;;;15.18;7.82;;;25.90;53.90;;;;;;4148411;28;20483;-69
2021/08/18 05:20:56;;;;;;;13.93;7.70;;;26.00;53.90;;;;;;4151486;28;20050;-68
2021/08/18 05:22:58;;;;;;;12.30;7.50;;;25.90;53.90;;;;;;4152185;28;20050;-67
2021/08/18 05:25:00;;;;;;;15.25;7.30;;;26.00;54.00;;;;;;4152301;28;20056;-67
2021/08/18 05:27:02;;;;;;;17.00;7.43;;;26.00;53.90;;;;;;4134981;28;20496;-67
2021/08/18 05:29:05;;;;;;;12.25;7.38;;;26.00;54.00;;;;;;4152303;28;20100;-67
2021/08/18 05:31:07;;;;;;;13.90;7.88;;;26.00;54.10;;;;;;4152347;28;20045;-67
2021/08/18 05:33:09;;;;;;;15.30;7.63;;;26.00;54.10;;;;;;4152281;28;20049;-67
2021/08/18 05:35:14;;;;;;;12.55;7.40;;;26.00;54.00;;;;;;4152246;28;20053;-67
2021/08/18 05:37:16;;;;;;;13.77;8.07;;;26.00;54.10;;;;;;4151676;28;20057;-68
2021/08/18 05:39:18;;;;;;;15.43;7.50;;;26.00;54.10;;;;;;4151746;28;20049;-66
2021/08/18 05:41:20;;;;;;;11.15;7.22;;;26.00;54.20;;;;;;4151581;28;20041;-67
2021/08/18 05:43:22;;;;;;;12.15;7.53;;;26.00;54.20;;;;;;4151535;28;20050;-67
2021/08/18 05:45:25;;;;;;;18.58;8.20;;;26.00;54.30;;;;;;4151937;28;20045;-67
2021/08/18 05:47:27;;;;;;;13.68;7.70;;;26.00;54.20;;;;;;4152119;28;20054;-67
2021/08/18 05:49:29;;;;;;;13.68;8.02;;;26.00;54.30;;;;;;4151388;28;20050;-67
2021/08/18 05:51:31;;;;;;;13.98;8.02;;;26.00;54.30;;;;;;4152038;28;20400;-67
2021/08/18 05:53:33;;;;;;;11.70;7.30;;;26.00;54.40;;;;;;4151991;28;20104;-67
2021/08/18 05:55:36;;;;;;;14.10;7.35;;;26.00;54.40;;;;;;4151453;28;20058;-67
2021/08/18 05:57:38;;;;;;;10.35;7.25;;;26.00;54.40;;;;;;4151502;28;20053;-67
2021/08/18 05:59:40;;;;;;;13.13;7.55;;;26.00;54.40;;;;;;4151865;28;20435;-67
2021/08/18 06:01:42;;;;;;;11.82;7.93;;;26.00;54.50;;;;;;4151806;28;20045;-67
2021/08/18 06:03:46;;;;;;;10.00;6.60;;;26.00;54.40;;;;;;4151558;28;20082;-67
2021/08/18 06:05:47;;;;;;;10.82;7.07;;;26.00;54.40;;;;;;4151180;28;20156;-67
2021/08/18 06:07:50;;;;;;;13.13;8.00;;;26.00;54.50;;;;;;4151214;28;20060;-68
2021/08/18 06:09:52;;;;;;;12.43;7.13;;;26.00;54.60;;;;;;4151549;28;20050;-67
2021/08/18 06:11:54;;;;;;;14.20;6.88;;;26.00;54.50;;;;;;4151172;28;20412;-67
2021/08/18 06:13:56;;;;;;;13.95;8.15;;;26.00;54.50;;;;;;4151671;28;20042;-68
2021/08/18 06:15:58;;;;;;;15.05;6.72;;;26.00;54.70;;;;;;4150838;28;20447;-68
2021/08/18 06:18:00;;;;;;;12.95;6.95;;;26.00;54.80;;;;;;4151117;28;20440;-68
2021/08/18 06:20:03;;;;;;;16.55;7.40;;;26.00;54.70;;;;;;4151121;28;20050;-68
2021/08/18 06:22:05;;;;;;;14.60;7.78;;;26.10;54.70;;;;;;4151193;28;20050;-72
2021/08/18 06:24:27;;;;;;;12.27;7.13;;;25.90;55.60;;;;;;4151562;28;20050;-71
2021/08/18 06:26:29;;;;;;;14.32;7.20;;;25.80;56.10;;;;;;4150742;28;20054;-69
2021/08/18 06:28:32;;;;;;;17.33;8.50;;;25.70;56.30;;;;;;4151028;28;20048;-66
2021/08/18 06:30:34;;;;;;;16.90;7.50;;;25.70;56.70;;;;;;4133474;28;20061;-65
2021/08/18 06:32:37;;;;;;;15.00;7.78;;;25.80;56.50;;;;;;4150451;28;20153;-64
2021/08/18 06:34:39;;;;;;;12.63;8.02;;;25.70;56.60;;;;;;4150832;28;20056;-66
2021/08/18 06:36:41;;;;;;;12.65;7.72;;;25.80;56.70;;;;;;4151246;28;20042;-64
2021/08/18 06:38:43;;;;;;;16.58;8.10;;;25.80;56.80;;;;;;4151107;28;20053;-63
2021/08/18 06:40:45;;;;;;;22.58;7.90;;;25.70;56.90;;;;;;4150950;28;20052;-63
2021/08/18 06:42:47;;;;;;;15.95;7.88;;;25.80;56.90;;;;;;4150869;28;20242;-64
2021/08/18 06:44:50;;;;;;;12.25;7.45;;;25.80;56.70;;;;;;4151208;28;20096;-64
2021/08/18 06:46:52;;;;;;;19.40;7.75;;;25.80;56.50;;;;;;4150752;28;20045;-67
2021/08/18 06:48:54;;;;;;;16.42;7.85;;;25.80;56.60;;;;;;4150454;28;20068;-66
2021/08/18 06:50:56;;;;;;;17.95;8.98;;;25.80;56.60;;;;;;4151062;28;20073;-66
2021/08/18 06:52:58;;;;;;;23.70;8.10;;;25.80;56.60;;;;;;4150295;28;20050;-70
2021/08/18 06:55:00;;;;;;;22.02;7.90;;;25.80;56.50;;;;;;4150076;28;20061;-69
2021/08/18 06:57:03;;;;;;;13.95;7.03;;;25.90;56.40;;;;;;4133012;28;20054;-69
2021/08/18 06:59:05;;;;;;;17.05;7.57;;;25.80;56.50;;;;;;4150520;28;20531;-71
2021/08/18 07:01:07;;;;;;;11.60;7.72;;;25.80;56.70;;;;;;4150834;28;20485;-75
2021/08/18 07:03:09;;;;;;;14.00;7.78;;;25.80;56.60;;;;;;4150591;28;20104;-70
2021/08/18 07:05:13;;;;;;;20.67;8.95;;;25.80;56.50;;;;;;4151008;28;20485;-66
2021/08/18 07:07:15;;;;;;;14.38;7.32;;;25.80;56.70;;;;;;4150514;28;20477;-74
2021/08/18 07:09:17;;;;;;;14.95;7.40;;;25.80;56.40;;;;;;4150756;28;20053;-75
2021/08/18 07:11:19;;;;;;;14.68;7.90;;;25.90;56.30;;;;;;4150427;28;20056;-74
2021/08/18 07:13:21;;;;;;;21.15;7.97;;;25.90;56.40;;;;;;4150418;28;20053;-74
2021/08/18 07:15:23;;;;;;;12.02;6.70;;;25.90;56.40;;;;;;4150063;28;20416;-74
2021/08/18 07:17:26;;;;;;;17.20;7.53;;;25.90;56.50;;;;;;4150593;28;20050;-73
2021/08/18 07:19:28;;;;;;;13.25;7.53;;;25.90;56.50;;;;;;4132956;28;20046;-74
2021/08/18 07:21:30;;;;;;;11.75;7.38;;;25.90;56.90;;;;;;4150515;28;20632;-73
2021/08/18 07:23:32;;;;;;;14.93;7.53;;;25.80;56.70;;;;;;4150473;28;20046;-75
2021/08/18 07:25:34;;;;;;;18.08;7.97;;;25.90;56.90;;;;;;4149843;28;20050;-75
2021/08/18 07:27:36;;;;;;;17.23;8.30;;;25.90;56.60;;;;;;4149993;28;20404;-75
2021/08/18 07:29:38;;;;;;;9.65;7.40;;;25.90;56.70;;;;;;4150455;28;20407;-74
2021/08/18 07:31:40;;;;;;;12.45;7.20;;;25.90;56.30;;;;;;4149933;28;20052;-73
2021/08/18 07:33:43;;;;;;;18.90;6.95;;;25.90;56.40;;;;;;4150455;28;20560;-72
2021/08/18 07:35:44;;;;;;;11.32;7.47;;;25.90;56.50;;;;;;4150294;28;20046;-72
2021/08/18 07:37:49;;;;;;;11.32;7.53;;;25.90;56.30;;;;;;4150144;28;20073;-71
2021/08/18 07:39:51;;;;;;;14.63;7.50;;;25.90;56.30;;;;;;4149943;28;20052;-71
2021/08/18 07:41:53;;;;;;;10.23;7.40;;;26.00;56.10;;;;;;4149307;28;20060;-71
2021/08/18 07:43:55;;;;;;;11.13;7.93;;;26.00;56.10;;;;;;4149554;28;20042;-72
2021/08/18 07:45:57;;;;;;;12.75;8.10;;;26.00;55.90;;;;;;4149124;28;20050;-69
2021/08/18 07:47:59;;;;;;;11.32;7.30;;;26.00;55.90;;;;;;4149812;28;20042;-69
2021/08/18 07:50:03;;;;;;;13.77;7.13;;;26.00;56.40;;;;;;4149629;28;20046;-70
2021/08/18 07:52:06;;;;;;;10.00;7.43;;;25.90;56.40;;;;;;4150017;28;20511;-68
2021/08/18 07:54:08;;;;;;;15.73;7.55;;;25.90;56.50;;;;;;4150047;28;20397;-66
2021/08/18 07:56:10;;;;;;;12.23;7.75;;;25.90;56.50;;;;;;4150099;28;20050;-64
2021/08/18 07:58:12;;;;;;;11.07;7.32;;;25.90;56.60;;;;;;4150005;28;20441;-65
2021/08/18 08:00:16;;;;;;;15.35;6.65;;;25.90;56.60;;;;;;4149652;28;20050;-64
2021/08/18 08:02:19;;;;;;;12.93;7.60;;;25.80;56.70;;;;;;4149637;28;20077;-77
2021/08/18 08:04:22;;;;;;;13.87;7.97;;;25.90;56.60;;;;;;4149728;28;20056;-72
2021/08/18 08:06:24;;;;;;;9.43;7.10;;;26.00;56.10;;;;;;4149790;28;20046;-72
2021/08/18 08:08:25;;;;;;;15.00;7.43;;;26.10;55.90;;;;;;4149627;28;20049;-67
2021/08/18 08:10:28;;;;;;;11.88;7.70;;;26.20;55.70;;;;;;4149825;28;20053;-72
2021/08/18 08:12:30;;;;;;;10.10;6.85;;;26.20;55.60;;;;;;4149780;28;20400;-70
2021/08/18 08:14:32;;;;;;;10.52;6.93;;;26.20;55.40;;;;;;4149583;28;20050;-68
2021/08/18 08:16:34;;;;;;;10.35;7.45;;;26.30;55.50;;;;;;4149216;28;20050;-69
2021/08/18 08:18:36;;;;;;;11.07;7.65;;;26.30;55.60;;;;;;4065352;28;75157;-68
2021/08/18 08:20:42;;;;;;;10.02;6.50;;;26.30;55.40;;;;;;4117026;28;20049;-70
2021/08/18 08:22:44;;;;;;;11.27;6.72;;;26.30;55.40;;;;;;4117417;28;20046;-73
2021/08/18 08:24:46;;;;;;;11.55;7.53;;;26.30;55.10;;;;;;4117367;28;20055;-70
2021/08/18 08:26:48;;;;;;;12.48;6.95;;;26.30;55.10;;;;;;4116929;28;20051;-72
2021/08/18 08:28:51;;;;;;;15.63;6.97;;;26.30;55.30;;;;;;4117305;28;20073;-75
2021/08/18 08:30:53;;;;;;;10.32;7.03;;;26.30;55.30;;;;;;4117171;28;20058;-72
2021/08/18 08:32:55;;;;;;;10.52;7.28;;;26.40;55.30;;;;;;4117214;28;20508;-70
2021/08/18 08:34:57;;;;;;;9.40;6.30;;;26.40;55.20;;;;;;4116715;28;20047;-67
2021/08/18 08:37:00;;;;;;;9.80;6.80;;;26.40;55.20;;;;;;4117042;28;20047;-65
2021/08/18 08:39:05;;;;;;;9.63;7.07;;;26.40;55.20;;;;;;4092227;28;20047;-66
2021/08/18 08:41:08;;;;;;;8.38;6.55;;;26.30;55.00;;;;;;4116815;28;20046;-68
2021/08/18 08:43:13;;;;;;;9.18;6.68;;;26.40;54.90;;;;;;4116831;28;20113;-70
2021/08/18 08:45:15;;;;;;;8.48;6.95;;;26.40;55.00;;;;;;4117062;28;20057;-71
2021/08/18 08:47:18;;;;;;;12.63;6.70;;;26.40;55.20;;;;;;4116722;28;20057;-69
2021/08/18 08:49:21;;;;;;;14.48;7.28;;;26.40;55.20;;;;;;4116876;28;20426;-68
2021/08/18 08:51:23;;;;;;;15.85;7.38;;;26.40;55.10;;;;;;4116809;28;20135;-70
2021/08/18 08:53:25;;;;;;;10.80;7.05;;;26.40;55.10;;;;;;4116869;28;20108;-72
2021/08/18 08:55:28;;;;;;;10.75;7.07;;;26.40;55.10;;;;;;4116182;28;20058;-70
2021/08/18 08:57:51;;;;;;;14.20;8.40;;;26.40;55.10;;;;;;4116660;28;20082;-66
2021/08/18 08:59:53;;;;;;;14.80;7.65;;;26.40;55.50;;;;;;4116614;28;20056;-67
2021/08/18 09:02:02;;;;;;;12.52;7.00;;;26.30;55.60;;;;;;4116611;28;20060;-66
2021/08/18 09:04:04;;;;;;;11.73;6.60;;;26.20;55.70;;;;;;4116113;28;20055;-67
2021/08/18 09:06:07;;;;;;;9.55;4.35;;;26.10;55.70;;;;;;4115920;28;20141;-67
2021/08/18 09:08:16;;;;;;;12.15;4.95;;;26.10;55.70;;;;;;4116165;28;20063;-68
2021/08/18 09:10:18;;;;;;;4.93;3.28;;;26.20;55.80;;;;;;4116437;28;20061;-69
2021/08/18 09:12:47;;;;;;;6.60;4.05;;;26.20;55.70;;;;;;4116338;28;20070;-65
2021/08/18 09:14:49;;;;;;;6.00;5.03;;;26.20;55.50;;;;;;4113334;28;20502;-66
2021/08/18 09:16:51;;;;;;;6.13;3.33;;;26.20;55.60;;;;;;4116523;28;20063;-65
2021/08/18 09:18:54;;;;;;;6.80;4.32;;;26.20;55.50;;;;;;4116511;28;20050;-65
2021/08/18 09:20:56;;;;;;;6.43;4.28;;;26.30;55.50;;;;;;4116618;28;20496;-65
2021/08/18 09:23:01;;;;;;;7.68;5.97;;;26.30;55.50;;;;;;4116399;28;20050;-64
2021/08/18 09:25:13;;;;;;;8.25;5.22;;;26.30;55.50;;;;;;4116461;28;20054;-64
2021/08/18 09:27:24;;;;;;;7.43;3.95;;;26.10;55.80;;;;;;4116650;28;20623;-65
2021/08/18 09:29:44;;;;;;;6.82;3.97;;;26.10;55.90;;;;;;4116254;28;20113;-64
2021/08/18 09:31:47;;;;;;;7.35;4.30;;;26.20;55.80;;;;;;4116269;28;20095;-65
2021/08/18 09:33:55;;;;;;;5.93;4.70;;;26.20;55.80;;;;;;4116619;28;20055;-64
2021/08/18 09:35:57;;;;;;;4.85;3.85;;;26.10;55.90;;;;;;4116523;28;20046;-63
2021/08/18 09:38:04;;;;;;;6.05;4.25;;;26.20;55.80;;;;;;4116421;28;20063;-65
2021/08/18 09:40:18;;;;;;;6.00;2.95;;;26.20;55.80;;;;;;4099273;28;20095;-64
2021/08/18 09:42:30;;;;;;;6.88;3.10;;;26.20;55.60;;;;;;4116006;28;20072;-73
2021/08/18 09:44:32;;;;;;;4.32;2.80;;;26.30;55.60;;;;;;4115808;28;20042;-69
2021/08/18 09:46:37;;;;;;;13.60;4.60;;;26.30;55.60;;;;;;4099021;28;20065;-70
2021/08/18 09:48:39;;;;;;;8.55;4.18;;;26.30;55.50;;;;;;4116170;28;20058;-66
2021/08/18 09:50:54;;;;;;;9.13;4.57;;;26.40;55.30;;;;;;4115393;28;20051;-67
2021/08/18 09:53:09;;;;;;;10.63;5.70;;;26.30;55.20;;;;;;4114899;28;20046;-67
2021/08/18 09:55:11;;;;;;;9.65;5.10;;;26.30;55.20;;;;;;4116051;28;20062;-66
2021/08/18 09:57:13;;;;;;;11.63;5.40;;;26.20;55.60;;;;;;4116005;28;20059;-67
2021/08/18 09:59:16;;;;;;;11.20;5.85;;;26.20;55.30;;;;;;4116332;28;20047;-67
2021/08/18 10:01:20;;;;;;;11.60;5.80;;;26.20;55.70;;;;;;4117931;28;20051;-66
2021/08/18 10:03:24;;;;;;;12.05;6.13;;;26.20;55.50;;;;;;4117775;28;20053;-68
2021/08/18 10:05:29;;;;;;;12.05;5.97;;;26.20;55.60;;;;;;4116417;28;20062;-66
2021/08/18 10:07:31;;;;;;;8.20;5.68;;;26.20;55.50;;;;;;4118295;28;20046;-66
2021/08/18 10:09:36;;;;;;;7.00;5.75;;;26.10;55.70;;;;;;4119013;28;20051;-66
2021/08/18 10:11:38;;;;;;;11.98;5.55;;;26.10;55.60;;;;;;4119411;28;20417;-66
2021/08/18 10:13:41;;;;;;;10.90;6.43;;;26.20;55.40;;;;;;4119306;28;20082;-66
2021/08/18 10:15:44;;;;;;;9.82;6.47;;;26.10;55.30;;;;;;4119002;28;20061;-66
2021/08/18 10:17:47;;;;;;;9.73;5.88;;;26.20;55.30;;;;;;4119290;28;20455;-66
2021/08/18 10:19:55;;;;;;;13.85;7.05;;;26.10;55.40;;;;;;4118442;28;20046;-70
2021/08/18 10:22:01;;;;;;;12.50;6.22;;;26.10;55.50;;;;;;4117879;28;20489;-71
2021/08/18 10:24:08;;;;;;;14.15;7.72;;;26.20;55.20;;;;;;4117854;28;20141;-68
2021/08/18 10:26:33;;;;;;;11.35;5.82;;;26.20;55.20;;;;;;4110422;28;20051;-68
2021/08/18 10:28:53;;;;;;;;;;;26.20;55.10;;;;;;4117923;28;20498;-70
2021/08/18 10:31:06;;;;;;;20.10;7.68;;;26.30;55.10;;;;;;4117300;28;19926;-68
2021/08/18 10:33:08;;;;;;;13.73;7.05;;;26.10;55.20;;;;;;4117760;28;20515;-70
2021/08/18 10:35:36;;;;;;;14.88;7.15;;;26.10;55.10;;;;;;4117837;28;20502;-71
2021/08/18 10:37:38;;;;;;;15.02;7.68;;;26.20;55.10;;;;;;4117652;28;20057;-71